createdAt,value
2018-09-14T00:01:37.002Z,73.33
2018-09-14T00:04:06.288Z,73.27
2018-09-14T00:06:35.550Z,73.27
2018-09-14T00:09:08.319Z,73.51
2018-09-14T00:11:37.828Z,73.26
2018-09-14T00:14:07.215Z,72.98
2018-09-14T00:16:36.881Z,73.28
2018-09-14T00:19:06.644Z,73.61
2018-09-14T00:21:36.495Z,73.25
2018-09-14T00:24:06.463Z,74.02
2018-09-14T00:26:36.418Z,73.26
2018-09-14T00:29:05.835Z,73.80
2018-09-14T00:31:35.145Z,74.06
2018-09-14T00:34:04.413Z,74.38
2018-09-14T00:36:33.938Z,74.75
2018-09-14T00:39:03.405Z,74.39
2018-09-14T00:41:32.747Z,74.81
2018-09-14T00:44:02.097Z,74.60
2018-09-14T00:46:31.887Z,74.03
2018-09-14T00:49:01.501Z,74.92
2018-09-14T00:51:30.805Z,74.91
2018-09-14T00:54:00.127Z,75.31
2018-09-14T00:56:29.727Z,74.95
2018-09-14T00:58:59.310Z,75.00
2018-09-14T01:01:28.970Z,75.73
2018-09-14T01:03:58.590Z,75.10
2018-09-14T01:06:28.029Z,75.58
2018-09-14T01:08:58.024Z,75.64
2018-09-14T01:11:27.575Z,75.94
2018-09-14T01:13:57.184Z,76.28
2018-09-14T01:16:26.798Z,75.71
2018-09-14T01:18:56.787Z,75.97
2018-09-14T01:21:26.526Z,75.97
2018-09-14T01:23:56.344Z,76.23
2018-09-14T01:26:25.808Z,76.48
2018-09-14T01:28:55.414Z,76.24
2018-09-14T01:31:25.635Z,77.15
2018-09-14T01:33:55.471Z,77.07
2018-09-14T01:36:26.529Z,77.15
2018-09-14T01:38:56.138Z,77.07
2018-09-14T01:41:25.542Z,77.57
2018-09-14T01:43:55.226Z,76.74
2018-09-14T01:46:25.195Z,76.44
2018-09-14T01:48:54.879Z,76.10
2018-09-14T01:51:24.788Z,76.76
2018-09-14T01:53:55.062Z,76.84
2018-09-14T01:56:25.155Z,76.41
2018-09-14T01:58:54.848Z,76.40
2018-09-14T02:01:24.727Z,75.46
2018-09-14T02:03:54.365Z,75.72
2018-09-14T02:06:24.494Z,76.35
2018-09-14T02:08:54.040Z,76.34
2018-09-14T02:11:23.973Z,76.12
2018-09-14T02:13:53.531Z,76.60
2018-09-14T02:16:23.023Z,76.87
2018-09-14T02:18:52.362Z,76.58
2018-09-14T02:21:21.615Z,76.45
2018-09-14T02:23:50.929Z,77.42
2018-09-14T02:26:20.236Z,76.91
2018-09-14T02:28:49.539Z,77.03
2018-09-14T02:31:18.839Z,76.50
2018-09-14T02:33:48.145Z,76.15
2018-09-14T02:36:17.504Z,76.06
2018-09-14T02:38:47.057Z,75.88
2018-09-14T02:41:16.431Z,74.64
2018-09-14T02:43:46.234Z,74.54
2018-09-14T02:46:15.546Z,74.48
2018-09-14T02:48:44.899Z,74.45
2018-09-14T02:51:14.759Z,74.52
2018-09-14T02:53:44.301Z,74.72
2018-09-14T02:56:13.905Z,74.69
2018-09-14T02:58:43.519Z,75.29
2018-09-14T03:01:13.299Z,75.17
2018-09-14T03:03:42.930Z,75.60
2018-09-14T03:06:12.655Z,74.92
2018-09-14T03:08:42.423Z,76.49
2018-09-14T03:11:12.164Z,76.29
2018-09-14T03:13:41.843Z,76.21
2018-09-14T03:16:11.484Z,76.18
2018-09-14T03:18:41.035Z,76.12
2018-09-14T03:21:12.066Z,75.67
2018-09-14T03:23:41.741Z,75.74
2018-09-14T03:26:11.363Z,75.52
2018-09-14T03:28:42.439Z,76.21
2018-09-14T03:31:11.823Z,76.01
2018-09-14T03:33:41.200Z,76.04
2018-09-14T03:36:10.631Z,76.51
2018-09-14T03:38:40.215Z,76.52
2018-09-14T03:41:09.744Z,75.70
2018-09-14T03:43:39.916Z,76.83
2018-09-14T03:46:09.556Z,76.44
2018-09-14T03:48:39.119Z,77.62
2018-09-14T03:51:08.801Z,77.25
2018-09-14T03:53:38.771Z,77.89
2018-09-14T03:56:08.314Z,78.32
2018-09-14T03:58:37.842Z,78.70
2018-09-14T04:01:07.600Z,79.02
2018-09-14T04:03:37.229Z,78.60
2018-09-14T04:06:06.904Z,78.23
2018-09-14T04:08:36.303Z,77.95
2018-09-14T04:11:05.555Z,78.05
2018-09-14T04:13:35.244Z,78.34
2018-09-14T04:16:05.035Z,78.30
2018-09-14T04:18:34.375Z,78.85
2018-09-14T04:21:03.752Z,78.71
2018-09-14T04:23:33.273Z,78.32
2018-09-14T04:26:03.490Z,78.84
2018-09-14T04:28:33.160Z,79.57
2018-09-14T04:31:02.434Z,79.54
2018-09-14T04:33:31.856Z,79.98
2018-09-14T04:36:01.157Z,79.82
2018-09-14T04:38:30.491Z,80.91
2018-09-14T04:40:59.721Z,80.33
2018-09-14T04:43:29.259Z,79.96
2018-09-14T04:45:58.719Z,78.54
2018-09-14T04:48:28.046Z,79.38
2018-09-14T04:50:57.701Z,79.22
2018-09-14T04:53:26.973Z,79.48
2018-09-14T04:55:56.391Z,79.11
2018-09-14T04:58:25.802Z,79.43
2018-09-14T05:00:55.091Z,79.42
2018-09-14T05:03:24.456Z,79.07
2018-09-14T05:05:53.940Z,79.04
2018-09-14T05:08:23.285Z,78.81
2018-09-14T05:10:52.587Z,78.67
2018-09-14T05:13:21.954Z,77.66
2018-09-14T05:15:51.311Z,77.80
2018-09-14T05:18:20.685Z,78.90
2018-09-14T05:20:49.988Z,79.38
2018-09-14T05:23:19.883Z,79.74
2018-09-14T05:25:49.216Z,79.09
2018-09-14T05:28:18.518Z,78.76
2018-09-14T05:30:47.811Z,78.47
2018-09-14T05:33:17.157Z,77.98
2018-09-14T05:35:46.607Z,78.16
2018-09-14T05:38:15.998Z,77.70
2018-09-14T05:40:45.348Z,76.46
2018-09-14T05:43:15.028Z,75.69
2018-09-14T05:45:44.360Z,75.55
2018-09-14T05:48:13.686Z,74.05
2018-09-14T05:50:43.067Z,74.74
2018-09-14T05:53:12.596Z,73.99
2018-09-14T05:55:42.617Z,73.05
2018-09-14T05:58:12.561Z,72.62
2018-09-14T06:00:41.891Z,71.39
2018-09-14T06:03:11.169Z,70.97
2018-09-14T06:05:40.475Z,69.29
2018-09-14T06:08:09.787Z,67.49
2018-09-14T06:10:39.184Z,66.64
2018-09-14T06:13:08.471Z,65.05
2018-09-14T06:15:37.757Z,63.60
2018-09-14T06:18:07.150Z,62.91
2018-09-14T06:20:36.768Z,61.82
2018-09-14T06:23:06.235Z,59.78
2018-09-14T06:25:35.645Z,58.20
2018-09-14T06:28:04.950Z,57.31
2018-09-14T06:30:34.245Z,58.38
2018-09-14T06:33:03.538Z,58.54
2018-09-14T06:35:32.995Z,56.79
2018-09-14T06:38:02.279Z,54.44
2018-09-14T06:40:31.549Z,54.53
2018-09-14T06:43:01.128Z,53.95
2018-09-14T06:45:30.464Z,51.21
2018-09-14T06:47:59.735Z,50.49
2018-09-14T06:50:29.089Z,47.16
2018-09-14T06:52:58.364Z,45.96
2018-09-14T06:55:27.702Z,46.71
2018-09-14T06:57:57.507Z,46.72
2018-09-14T07:00:27.010Z,44.96
2018-09-14T07:02:56.211Z,41.78
2018-09-14T07:05:25.754Z,40.21
2018-09-14T07:07:55.062Z,39.80
2018-09-14T07:10:24.342Z,37.97
2018-09-14T07:12:53.862Z,37.16
2018-09-14T07:15:23.698Z,36.36
2018-09-14T07:17:53.156Z,36.07
2018-09-14T07:20:22.458Z,34.39
2018-09-14T07:22:51.761Z,34.47
2018-09-14T07:25:21.262Z,33.78
2018-09-14T07:27:51.085Z,33.42
2018-09-14T07:30:20.397Z,31.70
2018-09-14T07:32:49.707Z,31.55
2018-09-14T07:35:19.037Z,31.36
2018-09-14T07:37:48.310Z,30.22
2018-09-14T07:40:17.774Z,30.41
2018-09-14T07:42:47.143Z,29.42
2018-09-14T07:45:16.473Z,31.02
2018-09-14T07:47:45.854Z,30.51
2018-09-14T07:50:15.583Z,29.88
2018-09-14T07:52:44.935Z,28.89
2018-09-14T07:55:14.544Z,28.15
2018-09-14T07:57:43.840Z,28.78
2018-09-14T08:00:13.247Z,27.05
2018-09-14T08:02:42.539Z,26.91
2018-09-14T08:05:11.849Z,28.12
2018-09-14T08:07:41.183Z,27.64
2018-09-14T08:10:10.628Z,26.36
2018-09-14T08:12:40.216Z,26.21
2018-09-14T08:15:09.664Z,25.80
2018-09-14T08:17:39.097Z,24.60
2018-09-14T08:20:08.491Z,24.50
2018-09-14T08:22:38.002Z,25.50
2018-09-14T08:25:07.365Z,27.16
2018-09-14T08:27:36.827Z,27.25
2018-09-14T08:30:06.468Z,24.99
2018-09-14T08:32:35.778Z,24.01
2018-09-14T08:35:05.495Z,24.55
2018-09-14T08:37:34.815Z,23.69
2018-09-14T08:40:04.132Z,22.66
2018-09-14T08:42:33.511Z,22.88
2018-09-14T08:45:02.764Z,24.12
2018-09-14T08:47:32.077Z,24.68
2018-09-14T08:50:01.398Z,23.67
2018-09-14T08:52:30.665Z,22.21
2018-09-14T08:54:59.972Z,23.86
2018-09-14T08:57:29.550Z,25.33
2018-09-14T08:59:59.413Z,24.35
2018-09-14T09:02:28.859Z,25.51
2018-09-14T09:04:58.227Z,28.09
2018-09-14T09:07:27.578Z,28.08
2018-09-14T09:09:57.050Z,27.86
2018-09-14T09:12:26.409Z,29.10
2018-09-14T09:14:56.174Z,27.60
2018-09-14T09:17:25.497Z,26.59
2018-09-14T09:19:55.568Z,26.13
2018-09-14T09:22:24.803Z,24.67
2018-09-14T09:24:54.095Z,22.74
2018-09-14T09:27:23.484Z,21.68
2018-09-14T09:29:53.131Z,21.06
2018-09-14T09:32:22.526Z,23.77
2018-09-14T09:34:51.870Z,21.40
2018-09-14T09:37:21.160Z,19.61
2018-09-14T09:39:50.487Z,20.43
2018-09-14T09:42:20.233Z,23.24
2018-09-14T09:44:49.557Z,25.24
2018-09-14T09:47:18.853Z,22.28
2018-09-14T09:49:48.139Z,24.69
2018-09-14T09:52:17.537Z,26.84
2018-09-14T09:54:46.897Z,31.36
2018-09-14T09:57:16.225Z,30.13
2018-09-14T09:59:45.830Z,29.60
2018-09-14T10:02:20.756Z,32.68
2018-09-14T10:04:55.405Z,40.06
2018-09-14T10:07:26.579Z,41.46
2018-09-14T10:09:56.695Z,41.53
2018-09-14T10:12:25.989Z,39.30
2018-09-14T10:14:55.413Z,39.07
2018-09-14T10:17:24.679Z,39.39
2018-09-14T10:19:54.071Z,40.05
2018-09-14T10:22:23.827Z,38.84
2018-09-14T10:24:53.128Z,39.09
2018-09-14T10:27:22.432Z,40.32
2018-09-14T10:29:51.797Z,40.90
2018-09-14T10:32:21.275Z,40.17
2018-09-14T10:34:50.603Z,35.04
2018-09-14T10:37:19.978Z,32.46
2018-09-14T10:39:49.491Z,29.49
2018-09-14T10:42:18.803Z,28.98
2018-09-14T10:44:48.341Z,28.63
2018-09-14T10:47:17.664Z,30.87
2018-09-14T10:49:47.050Z,28.65
2018-09-14T10:52:16.430Z,30.50
2018-09-14T10:54:45.959Z,32.86
2018-09-14T10:57:15.258Z,34.30
2018-09-14T10:59:44.695Z,34.34
2018-09-14T11:02:14.029Z,32.94
2018-09-14T11:04:43.362Z,29.29
2018-09-14T11:07:13.104Z,28.96
2018-09-14T11:09:42.396Z,30.49
2018-09-14T11:12:11.718Z,32.60
2018-09-14T11:14:41.079Z,32.92
2018-09-14T11:17:10.347Z,34.23
2018-09-14T11:19:39.792Z,32.25
2018-09-14T11:22:09.275Z,31.02
2018-09-14T11:24:38.694Z,31.56
2018-09-14T11:27:07.986Z,33.18
2018-09-14T11:29:37.727Z,34.79
2018-09-14T11:32:07.085Z,38.04
2018-09-14T11:34:36.471Z,37.87
2018-09-14T11:37:06.341Z,32.86
2018-09-14T11:39:35.585Z,29.18
2018-09-14T11:42:05.024Z,27.29
2018-09-14T11:44:34.413Z,24.19
2018-09-14T11:47:03.738Z,25.43
2018-09-14T11:49:33.202Z,25.44
2018-09-14T11:52:02.923Z,22.71
2018-09-14T11:54:32.311Z,26.52
2018-09-14T11:57:01.627Z,30.62
2018-09-14T11:59:31.634Z,30.93
2018-09-14T12:02:00.930Z,33.02
2018-09-14T12:04:30.351Z,34.46
2018-09-14T12:06:59.712Z,32.68
2018-09-14T12:09:29.051Z,29.58
2018-09-14T12:11:58.302Z,26.87
2018-09-14T12:14:28.118Z,27.37
2018-09-14T12:16:57.378Z,27.87
2018-09-14T12:19:26.903Z,29.29
2018-09-14T12:21:56.288Z,31.79
2018-09-14T12:24:25.637Z,35.17
2018-09-14T12:26:54.980Z,35.71
2018-09-14T12:29:24.379Z,35.82
2018-09-14T12:31:53.648Z,34.82
2018-09-14T12:34:23.039Z,34.15
2018-09-14T12:36:52.646Z,32.01
2018-09-14T12:39:22.002Z,31.76
2018-09-14T12:41:51.900Z,28.89
2018-09-14T12:44:21.282Z,26.52
2018-09-14T12:46:50.676Z,25.70
2018-09-14T12:49:19.982Z,24.65
2018-09-14T12:51:49.363Z,22.75
2018-09-14T12:54:18.759Z,23.72
2018-09-14T12:56:48.060Z,22.64
2018-09-14T12:59:17.967Z,24.59
2018-09-14T13:01:47.348Z,25.58
2018-09-14T13:04:17.213Z,25.49
2018-09-14T13:06:46.612Z,23.23
2018-09-14T13:09:15.915Z,24.37
2018-09-14T13:11:45.226Z,26.19
2018-09-14T13:14:17.815Z,24.34
2018-09-14T13:16:47.262Z,22.57
2018-09-14T13:19:16.607Z,23.66
2018-09-14T13:21:46.380Z,25.64
2018-09-14T13:24:15.793Z,25.66
2018-09-14T13:26:45.111Z,23.69
2018-09-14T13:29:14.400Z,20.25
2018-09-14T13:31:43.931Z,20.36
2018-09-14T13:34:13.399Z,21.23
2018-09-14T13:36:42.873Z,23.08
2018-09-14T13:39:12.693Z,24.65
2018-09-14T13:41:42.328Z,26.42
2018-09-14T13:44:11.953Z,26.48
2018-09-14T13:46:41.579Z,27.39
2018-09-14T13:49:10.913Z,28.62
2018-09-14T13:51:40.268Z,27.66
2018-09-14T13:54:09.620Z,27.20
2018-09-14T13:56:39.025Z,27.38
2018-09-14T13:59:08.535Z,27.35
2018-09-14T14:01:37.903Z,24.83
2018-09-14T14:04:07.203Z,24.06
2018-09-14T14:06:36.898Z,25.70
2018-09-14T14:09:10.128Z,28.60
2018-09-14T14:11:39.650Z,29.74
2018-09-14T14:14:09.914Z,26.66
2018-09-14T14:16:39.277Z,24.79
2018-09-14T14:19:09.214Z,22.68
2018-09-14T14:21:38.655Z,23.50
2018-09-14T14:24:08.210Z,25.39
2018-09-14T14:26:38.054Z,26.00
2018-09-14T14:29:07.935Z,26.86
2018-09-14T14:31:37.286Z,24.58
2018-09-14T14:34:06.728Z,23.83
2018-09-14T14:36:36.170Z,24.57
2018-09-14T14:39:07.979Z,25.62
2018-09-14T14:41:37.374Z,26.28
2018-09-14T14:44:06.852Z,27.03
2018-09-14T14:46:36.243Z,26.71
2018-09-14T14:49:05.603Z,28.85
2018-09-14T14:51:34.931Z,29.49
2018-09-14T14:54:04.342Z,30.50
2018-09-14T14:56:33.801Z,30.35
2018-09-14T14:59:03.151Z,30.99
2018-09-14T15:01:32.820Z,29.94
2018-09-14T15:04:02.113Z,28.24
2018-09-14T15:06:31.893Z,29.18
2018-09-14T15:09:01.573Z,30.03
2018-09-14T15:11:31.000Z,30.91
2018-09-14T15:14:00.325Z,31.29
2018-09-14T15:16:29.665Z,32.83
2018-09-14T15:18:59.019Z,33.09
2018-09-14T15:21:28.468Z,32.45
2018-09-14T15:23:58.023Z,33.13
2018-09-14T15:26:27.336Z,34.62
2018-09-14T15:28:56.683Z,36.93
2018-09-14T15:31:26.459Z,36.32
2018-09-14T15:33:55.817Z,36.48
2018-09-14T15:36:25.158Z,35.73
2018-09-14T15:38:54.521Z,36.07
2018-09-14T15:41:24.025Z,36.22
2018-09-14T15:43:53.372Z,37.18
2018-09-14T15:46:22.827Z,38.34
2018-09-14T15:48:52.180Z,38.97
2018-09-14T15:51:21.658Z,38.02
2018-09-14T15:53:52.320Z,37.97
2018-09-14T15:56:21.603Z,38.14
2018-09-14T15:58:51.242Z,36.20
2018-09-14T16:01:20.681Z,37.31
2018-09-14T16:03:50.320Z,36.95
2018-09-14T16:06:19.591Z,36.85
2018-09-14T16:08:50.210Z,36.96
2018-09-14T16:11:19.608Z,38.00
2018-09-14T16:13:49.159Z,37.58
2018-09-14T16:16:18.975Z,38.35
2018-09-14T16:18:48.292Z,38.63
2018-09-14T16:21:17.605Z,37.93
2018-09-14T16:23:47.015Z,38.83
2018-09-14T16:26:16.386Z,38.94
2018-09-14T16:28:45.704Z,38.26
2018-09-14T16:31:15.660Z,38.33
2018-09-14T16:33:45.126Z,39.84
2018-09-14T16:36:14.747Z,39.68
2018-09-14T16:38:44.401Z,38.84
2018-09-14T16:41:13.712Z,39.67
2018-09-14T16:43:43.100Z,39.89
2018-09-14T16:46:12.415Z,39.91
2018-09-14T16:48:41.782Z,40.49
2018-09-14T16:51:11.079Z,40.90
2018-09-14T16:53:40.644Z,40.48
2018-09-14T16:56:10.000Z,39.78
2018-09-14T16:58:39.385Z,40.90
2018-09-14T17:01:09.194Z,40.79
2018-09-14T17:03:38.636Z,41.28
2018-09-14T17:06:08.070Z,41.39
2018-09-14T17:08:37.534Z,41.17
2018-09-14T17:11:07.038Z,41.52
2018-09-14T17:13:36.458Z,41.29
2018-09-14T17:16:05.839Z,41.35
2018-09-14T17:18:35.515Z,40.74
2018-09-14T17:21:05.023Z,41.30
2018-09-14T17:23:34.638Z,40.42
2018-09-14T17:26:04.484Z,40.82
2018-09-14T17:28:33.861Z,40.95
2018-09-14T17:31:03.420Z,40.99
2018-09-14T17:33:32.762Z,41.32
2018-09-14T17:36:02.173Z,41.97
2018-09-14T17:38:31.611Z,41.28
2018-09-14T17:41:01.069Z,41.81
2018-09-14T17:43:30.597Z,42.26
2018-09-14T17:46:00.600Z,43.33
2018-09-14T17:48:30.012Z,43.98
2018-09-14T17:50:59.359Z,44.48
2018-09-14T17:53:28.900Z,44.53
2018-09-14T17:55:58.205Z,46.08
2018-09-14T17:58:27.669Z,45.91
2018-09-14T18:00:57.394Z,46.68
2018-09-14T18:03:26.892Z,46.96
2018-09-14T18:05:56.143Z,46.90
2018-09-14T18:08:25.950Z,47.36
2018-09-14T18:10:55.305Z,48.54
2018-09-14T18:13:24.855Z,49.34
2018-09-14T18:15:54.405Z,49.25
2018-09-14T18:18:24.008Z,49.12
2018-09-14T18:20:53.487Z,49.71
2018-09-14T18:23:22.959Z,51.05
2018-09-14T18:25:52.296Z,50.51
2018-09-14T18:28:21.885Z,50.57
2018-09-14T18:30:51.669Z,51.60
2018-09-14T18:33:21.175Z,52.09
2018-09-14T18:35:50.696Z,52.35
2018-09-14T18:38:20.296Z,52.30
2018-09-14T18:40:50.011Z,52.94
2018-09-14T18:43:19.647Z,53.29
2018-09-14T18:45:49.458Z,53.37
2018-09-14T18:48:18.898Z,54.63
2018-09-14T18:50:48.515Z,55.34
2018-09-14T18:53:18.682Z,55.51
2018-09-14T18:55:48.323Z,54.70
2018-09-14T18:58:18.074Z,54.48
2018-09-14T19:00:47.607Z,55.02
2018-09-14T19:03:17.244Z,54.58
2018-09-14T19:05:46.670Z,56.12
2018-09-14T19:08:16.240Z,56.38
2018-09-14T19:10:46.316Z,55.99
2018-09-14T19:13:17.250Z,55.47
2018-09-14T19:15:47.023Z,55.32
2018-09-14T19:18:16.679Z,55.72
2018-09-14T19:20:46.377Z,55.96
2018-09-14T19:23:15.871Z,56.04
2018-09-14T19:25:45.235Z,56.55
2018-09-14T19:28:14.713Z,56.69
2018-09-14T19:30:44.361Z,56.91
2018-09-14T19:33:13.748Z,57.97
2018-09-14T19:35:43.124Z,57.36
2018-09-14T19:38:12.966Z,56.65
2018-09-14T19:40:42.722Z,57.51
2018-09-14T19:43:12.186Z,57.85
2018-09-14T19:45:41.987Z,57.40
2018-09-14T19:48:11.881Z,57.21
2018-09-14T19:50:42.023Z,57.53
2018-09-14T19:53:12.138Z,56.79
2018-09-14T19:55:41.987Z,56.66
2018-09-14T19:58:12.265Z,56.88
2018-09-14T20:00:42.331Z,57.30
2018-09-14T20:03:12.008Z,56.72
2018-09-14T20:05:42.067Z,57.24
2018-09-14T20:08:11.905Z,57.29
2018-09-14T20:10:41.752Z,55.85
2018-09-14T20:13:11.925Z,57.59
2018-09-14T20:15:41.904Z,57.11
2018-09-14T20:18:11.563Z,57.74
2018-09-14T20:20:41.453Z,57.78
2018-09-14T20:23:11.320Z,56.71
2018-09-14T20:25:41.115Z,57.78
2018-09-14T20:28:10.649Z,58.23
2018-09-14T20:30:40.533Z,58.84
2018-09-14T20:33:10.117Z,57.91
2018-09-14T20:35:39.816Z,57.94
2018-09-14T20:38:09.603Z,56.92
2018-09-14T20:40:39.328Z,57.59
2018-09-14T20:43:08.808Z,57.77
2018-09-14T20:45:38.766Z,57.07
2018-09-14T20:48:08.376Z,58.28
2018-09-14T20:50:37.966Z,57.69
2018-09-14T20:53:10.510Z,58.62
2018-09-14T20:55:40.316Z,57.63
2018-09-14T20:58:10.302Z,57.19
2018-09-14T21:00:39.962Z,57.20
2018-09-14T21:03:09.682Z,58.21
2018-09-14T21:05:39.191Z,58.49
2018-09-14T21:08:09.238Z,58.00
2018-09-14T21:10:38.553Z,58.32
2018-09-14T21:13:08.192Z,57.67
2018-09-14T21:15:37.692Z,57.70
2018-09-14T21:18:07.477Z,57.52
2018-09-14T21:20:37.445Z,57.84
2018-09-14T21:23:07.398Z,58.04
2018-09-14T21:25:37.353Z,58.11
2018-09-14T21:28:06.966Z,57.89
2018-09-14T21:30:36.725Z,57.86
2018-09-14T21:33:06.255Z,57.30
2018-09-14T21:35:36.021Z,58.20
2018-09-14T21:38:05.454Z,58.20
2018-09-14T21:40:35.145Z,57.74
2018-09-14T21:43:04.875Z,59.13
2018-09-14T21:45:34.966Z,59.31
2018-09-14T21:48:04.548Z,58.93
2018-09-14T21:50:34.002Z,58.13
2018-09-14T21:53:03.349Z,58.58
2018-09-14T21:55:32.918Z,59.40
2018-09-14T21:58:02.376Z,58.74
2018-09-14T22:00:37.315Z,58.32
2018-09-14T22:03:07.126Z,58.28
2018-09-14T22:05:36.950Z,58.49
2018-09-14T22:08:07.048Z,59.84
2018-09-14T22:10:36.824Z,59.16
2018-09-14T22:13:06.662Z,58.29
2018-09-14T22:15:36.274Z,59.94
2018-09-14T22:18:05.946Z,59.91
2018-09-14T22:20:35.593Z,59.91
2018-09-14T22:23:06.774Z,60.38
2018-09-14T22:25:36.167Z,59.64
2018-09-14T22:28:05.676Z,59.58
2018-09-14T22:30:38.252Z,59.24
2018-09-14T22:33:08.060Z,59.59
2018-09-14T22:35:37.397Z,59.68
2018-09-14T22:38:07.190Z,60.49
2018-09-14T22:40:36.751Z,60.96
2018-09-14T22:43:06.385Z,60.85
2018-09-14T22:45:35.839Z,60.67
2018-09-14T22:48:05.277Z,59.95
2018-09-14T22:50:35.634Z,60.24
2018-09-14T22:53:05.019Z,60.77
2018-09-14T22:55:34.323Z,60.10
2018-09-14T22:58:03.836Z,59.99
2018-09-14T23:00:38.895Z,59.98
2018-09-14T23:03:08.230Z,60.25
2018-09-14T23:05:37.681Z,59.87
2018-09-14T23:08:07.506Z,59.89
2018-09-14T23:10:37.254Z,59.67
2018-09-14T23:13:06.963Z,59.41
2018-09-14T23:15:36.668Z,59.02
2018-09-14T23:18:06.826Z,58.88
2018-09-14T23:20:36.467Z,58.46
2018-09-14T23:23:06.631Z,58.57
2018-09-14T23:25:36.164Z,57.69
2018-09-14T23:28:05.950Z,58.04
2018-09-14T23:30:35.566Z,57.74
2018-09-14T23:33:05.369Z,57.54
2018-09-14T23:35:35.225Z,57.77
2018-09-14T23:38:05.127Z,57.50
2018-09-14T23:40:34.525Z,57.81
2018-09-14T23:43:03.956Z,57.55
2018-09-14T23:45:33.680Z,57.42
2018-09-14T23:48:03.422Z,58.09
2018-09-14T23:50:32.795Z,58.26
2018-09-14T23:53:02.522Z,58.53
2018-09-14T23:55:32.142Z,58.43
2018-09-14T23:58:01.978Z,57.83
